createdAt,value
2022-09-23T00:01:10.686Z,97457.28
2022-09-23T00:03:14.200Z,97454.81
2022-09-23T00:05:17.022Z,97454.97
2022-09-23T00:07:19.563Z,97452.38
2022-09-23T00:09:22.083Z,97455.91
2022-09-23T00:11:26.982Z,97453.19
2022-09-23T00:13:29.511Z,97447.94
2022-09-23T00:15:33.712Z,97448.03
2022-09-23T00:17:38.208Z,97454.09
2022-09-23T00:19:41.055Z,97456.09
2022-09-23T00:21:43.619Z,97452.69
2022-09-23T00:23:46.351Z,97452.72
2022-09-23T00:25:57.181Z,97457.94
2022-09-23T00:27:59.905Z,97457.81
2022-09-23T00:30:02.675Z,97453.56
2022-09-23T00:32:06.096Z,97451.03
2022-09-23T00:34:12.098Z,97448.53
2022-09-23T00:36:16.554Z,97453.81
2022-09-23T00:38:19.209Z,97453.13
2022-09-23T00:40:21.918Z,97452.38
2022-09-23T00:42:25.307Z,97444.56
2022-09-23T00:44:47.662Z,97446.34
2022-09-23T00:46:50.319Z,97443.75
2022-09-23T00:48:58.570Z,97444.72
2022-09-23T00:51:02.946Z,97438.66
2022-09-23T00:53:09.641Z,97443.94
2022-09-23T00:55:17.458Z,97439.66
2022-09-23T00:57:20.870Z,97439.66
2022-09-23T00:59:26.087Z,97435.47
2022-09-23T01:01:28.874Z,97439.81
2022-09-23T01:03:31.866Z,97437.19
2022-09-23T01:05:36.376Z,97437.97
2022-09-23T01:07:40.287Z,97437.97
2022-09-23T01:09:42.877Z,97435.22
2022-09-23T01:12:01.291Z,97438.78
2022-09-23T01:14:19.003Z,97435.41
2022-09-23T01:16:29.990Z,97434.50
2022-09-23T01:18:39.085Z,97428.59
2022-09-23T01:20:56.040Z,97427.72
2022-09-23T01:23:17.501Z,97428.59
2022-09-23T01:25:34.669Z,97426.91
2022-09-23T01:27:51.340Z,97440.78
2022-09-23T01:30:34.568Z,97427.91
2022-09-23T01:32:45.652Z,97427.97
2022-09-23T01:34:52.261Z,97428.81
2022-09-23T01:37:02.455Z,97427.16
2022-09-23T01:39:11.982Z,97430.66
2022-09-23T01:41:27.527Z,97429.88
2022-09-23T01:43:39.413Z,97427.34
2022-09-23T01:45:47.391Z,97427.59
2022-09-23T01:47:55.794Z,97425.84
2022-09-23T01:50:02.872Z,97423.31
2022-09-23T01:52:11.057Z,97416.38
2022-09-23T01:54:17.733Z,97417.34
2022-09-23T01:56:23.626Z,97417.47
2022-09-23T01:58:30.337Z,97416.59
2022-09-23T02:00:37.508Z,97406.09
2022-09-23T02:02:49.916Z,97413.00
2022-09-23T02:04:56.926Z,97412.19
2022-09-23T02:07:03.727Z,97414.09
2022-09-23T02:09:10.322Z,97409.78
2022-09-23T02:11:15.844Z,97412.41
2022-09-23T02:13:24.153Z,97406.38
2022-09-23T02:15:33.661Z,97409.88
2022-09-23T02:17:42.514Z,97397.69
2022-09-23T02:19:49.856Z,97405.63
2022-09-23T02:21:57.584Z,97402.25
2022-09-23T02:24:09.095Z,97403.97
2022-09-23T02:26:20.054Z,97399.75
2022-09-23T02:28:30.874Z,97400.59
2022-09-23T02:30:43.333Z,97401.44
2022-09-23T02:32:53.672Z,97401.47
2022-09-23T02:35:06.723Z,97402.34
2022-09-23T02:37:17.616Z,97401.50
2022-09-23T02:39:23.920Z,97396.28
2022-09-23T02:41:32.272Z,97397.09
2022-09-23T02:43:41.787Z,97391.09
2022-09-23T02:45:44.854Z,97389.41
2022-09-23T02:47:52.443Z,97388.53
2022-09-23T02:49:56.358Z,97392.78
2022-09-23T02:52:05.537Z,97388.53
2022-09-23T02:54:11.396Z,97385.97
2022-09-23T02:56:16.117Z,97388.63
2022-09-23T02:58:18.988Z,97384.34
2022-09-23T03:00:21.664Z,97382.63
2022-09-23T03:02:39.916Z,97387.03
2022-09-23T03:04:51.160Z,97381.00
2022-09-23T03:07:02.846Z,97385.38
2022-09-23T03:09:08.874Z,97382.88
2022-09-23T03:11:13.547Z,97382.09
2022-09-23T03:13:27.345Z,97388.94
2022-09-23T03:15:37.384Z,97388.28
2022-09-23T03:17:50.735Z,97387.47
2022-09-23T03:20:00.123Z,97387.56
2022-09-23T03:22:09.311Z,97390.06
2022-09-23T03:24:14.819Z,97388.44
2022-09-23T03:26:21.940Z,97383.22
2022-09-23T03:28:26.988Z,97381.50
2022-09-23T03:30:31.744Z,97383.31
2022-09-23T03:32:35.905Z,97390.28
2022-09-23T03:34:42.454Z,97384.22
2022-09-23T03:36:53.806Z,97383.41
2022-09-23T03:39:03.869Z,97387.00
2022-09-23T03:41:10.637Z,97383.59
2022-09-23T03:43:13.856Z,97388.84
2022-09-23T03:45:20.879Z,97381.00
2022-09-23T03:47:24.736Z,97383.69
2022-09-23T03:49:32.955Z,97378.47
2022-09-23T03:51:35.511Z,97373.31
2022-09-23T03:53:39.586Z,97375.91
2022-09-23T03:55:45.547Z,97368.91
2022-09-23T03:57:48.563Z,97368.13
2022-09-23T03:59:51.773Z,97362.94
2022-09-23T04:01:55.553Z,97357.75
2022-09-23T04:03:58.157Z,97364.75
2022-09-23T04:06:00.840Z,97360.38
2022-09-23T04:08:03.387Z,97352.69
2022-09-23T04:10:07.176Z,97352.72
2022-09-23T04:12:16.731Z,97353.72
2022-09-23T04:14:20.349Z,97345.94
2022-09-23T04:16:25.278Z,97344.34
2022-09-23T04:18:27.972Z,97346.94
2022-09-23T04:20:30.578Z,97347.88
2022-09-23T04:22:33.944Z,97349.47
2022-09-23T04:24:36.520Z,97344.34
2022-09-23T04:26:40.179Z,97353.03
2022-09-23T04:28:44.056Z,97355.66
2022-09-23T04:30:47.251Z,97350.56
2022-09-23T04:32:50.135Z,97341.81
2022-09-23T04:34:52.636Z,97343.69
2022-09-23T04:36:55.175Z,97350.56
2022-09-23T04:38:58.806Z,97346.19
2022-09-23T04:41:01.502Z,97341.94
2022-09-23T04:43:04.265Z,97345.44
2022-09-23T04:45:09.295Z,97346.31
2022-09-23T04:47:11.836Z,97340.25
2022-09-23T04:49:14.888Z,97343.03
2022-09-23T04:51:19.185Z,97340.44
2022-09-23T04:53:22.466Z,97343.22
2022-09-23T04:55:25.032Z,97340.72
2022-09-23T04:57:28.097Z,97345.84
2022-09-23T04:59:30.887Z,97354.63
2022-09-23T05:01:36.250Z,97357.19
2022-09-23T05:03:39.873Z,97358.16
2022-09-23T05:05:42.405Z,97358.22
2022-09-23T05:07:45.114Z,97359.09
2022-09-23T05:09:47.947Z,97360.06
2022-09-23T05:11:51.923Z,97359.25
2022-09-23T05:13:55.330Z,97362.72
2022-09-23T05:16:00.620Z,97364.50
2022-09-23T05:18:05.038Z,97362.72
2022-09-23T05:20:08.587Z,97359.22
2022-09-23T05:22:11.141Z,97373.00
2022-09-23T05:24:14.136Z,97368.72
2022-09-23T05:26:16.733Z,97368.81
2022-09-23T05:28:20.083Z,97370.47
2022-09-23T05:30:22.712Z,97365.97
2022-09-23T05:32:26.257Z,97362.59
2022-09-23T05:34:30.141Z,97368.66
2022-09-23T05:36:38.162Z,97371.34
2022-09-23T05:38:42.395Z,97370.47
2022-09-23T05:40:45.024Z,97368.69
2022-09-23T05:42:47.574Z,97372.84
2022-09-23T05:44:50.071Z,97373.69
2022-09-23T05:46:52.777Z,97370.31
2022-09-23T05:49:01.186Z,97369.41
2022-09-23T05:51:09.044Z,97372.84
2022-09-23T05:53:11.614Z,97378.88
2022-09-23T05:55:14.766Z,97380.47
2022-09-23T05:57:17.371Z,97373.41
2022-09-23T05:59:20.152Z,97373.28
2022-09-23T06:01:25.933Z,97374.16
2022-09-23T06:03:28.557Z,97372.31
2022-09-23T06:05:31.375Z,97367.03
2022-09-23T06:07:35.243Z,97369.59
2022-09-23T06:09:38.004Z,97375.31
2022-09-23T06:11:41.552Z,97376.22
2022-09-23T06:13:44.275Z,97371.06
2022-09-23T06:15:46.895Z,97374.53
2022-09-23T06:17:50.898Z,97374.34
2022-09-23T06:19:53.446Z,97373.28
2022-09-23T06:21:55.988Z,97377.53
2022-09-23T06:24:00.838Z,97368.94
2022-09-23T06:26:04.390Z,97374.06
2022-09-23T06:28:12.413Z,97370.47
2022-09-23T06:30:17.050Z,97365.94
2022-09-23T06:32:20.578Z,97368.44
2022-09-23T06:34:23.102Z,97370.84
2022-09-23T06:36:41.489Z,97368.22
2022-09-23T06:38:49.174Z,97368.91
2022-09-23T06:40:54.516Z,97368.63
2022-09-23T06:43:00.732Z,97369.72
2022-09-23T06:45:03.295Z,97367.22
2022-09-23T06:47:05.995Z,97370.56
2022-09-23T06:49:08.589Z,97373.91
2022-09-23T06:51:18.881Z,97378.19
2022-09-23T06:53:23.661Z,97372.22
2022-09-23T06:55:27.967Z,97375.59
2022-09-23T06:57:32.791Z,97379.81
2022-09-23T06:59:35.621Z,97372.72
2022-09-23T07:01:38.449Z,97371.75
2022-09-23T07:03:41.219Z,97368.19
2022-09-23T07:05:43.762Z,97367.13
2022-09-23T07:07:46.338Z,97361.94
2022-09-23T07:09:48.865Z,97366.94
2022-09-23T07:11:51.456Z,97365.88
2022-09-23T07:13:55.325Z,97364.13
2022-09-23T07:16:00.712Z,97359.75
2022-09-23T07:18:03.277Z,97364.75
2022-09-23T07:20:06.456Z,97360.19
2022-09-23T07:22:09.011Z,97361.75
2022-09-23T07:24:11.581Z,97355.44
2022-09-23T07:26:15.173Z,97354.44
2022-09-23T07:28:17.826Z,97353.44
2022-09-23T07:30:25.429Z,97353.19
2022-09-23T07:32:32.182Z,97353.22
2022-09-23T07:34:39.269Z,97354.75
2022-09-23T07:36:41.955Z,97349.38
2022-09-23T07:38:45.800Z,97344.13
2022-09-23T07:40:49.213Z,97346.66
2022-09-23T07:42:51.875Z,97351.63
2022-09-23T07:44:55.386Z,97351.53
2022-09-23T07:46:59.455Z,97349.53
2022-09-23T07:49:04.405Z,97353.69
2022-09-23T07:51:08.700Z,97348.44
2022-09-23T07:53:11.244Z,97349.94
2022-09-23T07:55:18.809Z,97355.81
2022-09-23T07:57:24.003Z,97355.56
2022-09-23T07:59:27.235Z,97349.25
2022-09-23T08:01:32.593Z,97347.28
2022-09-23T08:03:36.551Z,97345.31
2022-09-23T08:05:39.095Z,97345.13
2022-09-23T08:07:41.636Z,97351.03
2022-09-23T08:09:45.320Z,97344.78
2022-09-23T08:11:48.164Z,97352.41
2022-09-23T08:13:50.742Z,97346.16
2022-09-23T08:15:55.537Z,97349.44
2022-09-23T08:17:59.802Z,97347.56
2022-09-23T08:20:03.896Z,97350.94
2022-09-23T08:22:06.730Z,97355.97
2022-09-23T08:24:10.307Z,97350.69
2022-09-23T08:26:20.263Z,97352.34
2022-09-23T08:28:24.746Z,97356.59
2022-09-23T08:30:27.273Z,97353.88
2022-09-23T08:32:30.046Z,97353.81
2022-09-23T08:34:32.552Z,97347.28
2022-09-23T08:36:37.237Z,97346.91
2022-09-23T08:38:39.812Z,97348.53
2022-09-23T08:40:47.300Z,97347.47
2022-09-23T08:42:50.322Z,97351.59
2022-09-23T08:44:57.527Z,97347.97
2022-09-23T08:47:11.768Z,97345.31
2022-09-23T08:49:22.661Z,97348.59
2022-09-23T08:51:37.117Z,97344.16
2022-09-23T08:53:42.247Z,97345.75
2022-09-23T08:55:49.479Z,97347.28
2022-09-23T09:00:35.692Z,97349.72
2022-09-23T09:02:38.282Z,97347.91
2022-09-23T09:04:44.615Z,97342.69
2022-09-23T09:06:54.049Z,97354.53
2022-09-23T09:09:01.997Z,97355.44
2022-09-23T09:11:06.048Z,97347.59
2022-09-23T09:13:24.574Z,97357.81
2022-09-23T09:15:29.442Z,97343.91
2022-09-23T09:17:38.315Z,97348.19
2022-09-23T09:19:53.569Z,97341.97
2022-09-23T09:21:56.208Z,97341.91
2022-09-23T09:24:00.688Z,97336.63
2022-09-23T09:26:05.199Z,97340.97
2022-09-23T09:28:16.292Z,97326.91
2022-09-23T09:30:20.731Z,97327.78
2022-09-23T09:32:37.808Z,97326.84
2022-09-23T09:34:45.927Z,97320.75
2022-09-23T09:36:55.320Z,97317.22
2022-09-23T09:38:59.656Z,97312.78
2022-09-23T09:41:14.963Z,97323.00
2022-09-23T09:43:23.611Z,97313.94
2022-09-23T09:45:38.675Z,97318.75
2022-09-23T09:47:51.796Z,97316.72
2022-09-23T09:50:00.712Z,97322.59
2022-09-23T09:52:16.016Z,97313.78
2022-09-23T09:54:24.638Z,97310.28
2022-09-23T09:56:34.018Z,97302.38
2022-09-23T09:58:45.930Z,97303.97
2022-09-23T10:00:50.614Z,97302.16
2022-09-23T10:02:53.892Z,97298.59
2022-09-23T10:04:59.743Z,97294.91
2022-09-23T10:07:08.025Z,97287.78
2022-09-23T10:09:14.638Z,97292.91
2022-09-23T10:11:19.057Z,97289.31
2022-09-23T10:13:25.030Z,97291.00
2022-09-23T10:15:31.231Z,97283.09
2022-09-23T10:17:35.371Z,97290.88
2022-09-23T10:19:44.754Z,97293.34
2022-09-23T10:21:53.006Z,97283.53
2022-09-23T10:24:00.822Z,97287.81
2022-09-23T10:26:08.035Z,97285.06
2022-09-23T10:28:45.426Z,97285.84
2022-09-23T10:31:07.033Z,97292.19
2022-09-23T10:33:27.826Z,97288.66
2022-09-23T10:35:34.307Z,97286.75
2022-09-23T10:37:39.642Z,97277.13
2022-09-23T10:40:00.171Z,97277.13
2022-09-23T10:42:23.789Z,97279.75
2022-09-23T10:44:57.073Z,97278.91
2022-09-23T10:47:06.262Z,97277.81
2022-09-23T10:49:45.873Z,97275.91
2022-09-23T10:52:01.816Z,97272.09
2022-09-23T10:54:14.152Z,97275.41
2022-09-23T10:56:31.185Z,97273.47
2022-09-23T10:59:04.196Z,97267.81
2022-09-23T11:01:23.784Z,97260.75
2022-09-23T11:03:48.859Z,97260.88
2022-09-23T11:06:04.720Z,97258.72
2022-09-23T11:08:27.456Z,97261.44
2022-09-23T11:10:52.040Z,97254.50
2022-09-23T11:13:07.747Z,97251.03
2022-09-23T11:15:23.183Z,97251.81
2022-09-23T11:17:45.849Z,97251.22
2022-09-23T11:20:06.511Z,97241.75
2022-09-23T11:22:24.266Z,97239.78
2022-09-23T11:25:02.295Z,97235.38
2022-09-23T11:27:13.012Z,97229.91
2022-09-23T11:29:42.402Z,97219.38
2022-09-23T11:31:57.377Z,97223.66
2022-09-23T11:34:20.252Z,97220.13
2022-09-23T11:36:31.806Z,97213.03
2022-09-23T11:38:38.329Z,97210.03
2022-09-23T11:40:46.217Z,97216.13
2022-09-23T11:42:58.059Z,97205.31
2022-09-23T11:45:07.734Z,97211.41
2022-09-23T11:47:15.170Z,97205.06
2022-09-23T11:49:27.648Z,97201.75
2022-09-23T11:51:33.851Z,97199.97
2022-09-23T11:53:44.059Z,97198.34
2022-09-23T11:55:57.767Z,97211.28
2022-09-23T11:58:14.873Z,97200.31
2022-09-23T12:00:24.208Z,97200.25
2022-09-23T12:02:32.386Z,97200.06
2022-09-23T12:04:52.003Z,97201.59
2022-09-23T12:07:01.937Z,97199.84
2022-09-23T12:09:14.599Z,97194.50
2022-09-23T12:11:27.173Z,97195.38
2022-09-23T12:13:40.592Z,97193.47
2022-09-23T12:15:57.687Z,97186.06
2022-09-23T12:18:23.392Z,97183.00
2022-09-23T12:20:50.418Z,97181.81
2022-09-23T12:23:10.725Z,97179.69
2022-09-23T12:25:35.566Z,97179.78
2022-09-23T12:27:44.752Z,97175.31
2022-09-23T12:29:50.064Z,97187.53
2022-09-23T12:31:53.512Z,97180.50
2022-09-23T12:33:56.278Z,97174.88
2022-09-23T12:36:06.237Z,97173.59
2022-09-23T12:38:19.347Z,97172.44
2022-09-23T12:40:28.348Z,97170.81
2022-09-23T12:42:31.507Z,97166.41
2022-09-23T12:44:40.538Z,97166.97
2022-09-23T12:46:44.081Z,97160.97
2022-09-23T12:49:01.186Z,97160.97
2022-09-23T12:51:16.833Z,97163.03
2022-09-23T12:53:56.330Z,97150.53
2022-09-23T12:56:00.053Z,97151.59
2022-09-23T12:58:02.575Z,97157.03
2022-09-23T13:00:28.092Z,97150.44
2022-09-23T13:02:40.161Z,97144.97
2022-09-23T13:05:14.853Z,97147.56
2022-09-23T13:07:22.826Z,97133.16
2022-09-23T13:09:29.271Z,97125.97
2022-09-23T13:11:34.035Z,97117.16
2022-09-23T13:13:41.025Z,97115.47
2022-09-23T13:15:43.668Z,97118.59
2022-09-23T13:17:46.317Z,97113.56
2022-09-23T13:20:00.541Z,97118.78
2022-09-23T13:22:09.176Z,97115.88
2022-09-23T13:24:21.805Z,97115.91
2022-09-23T13:26:24.477Z,97108.47
2022-09-23T13:28:37.098Z,97108.25
2022-09-23T13:30:51.162Z,97109.72
2022-09-23T13:33:03.734Z,97107.38
2022-09-23T13:35:17.746Z,97108.25
2022-09-23T13:37:23.052Z,97104.34
2022-09-23T13:39:28.633Z,97104.00
2022-09-23T13:41:31.184Z,97104.25
2022-09-23T13:43:41.225Z,97110.19
2022-09-23T13:45:44.475Z,97103.47
2022-09-23T13:47:49.124Z,97097.22
2022-09-23T13:49:51.802Z,97094.47
2022-09-23T13:51:55.505Z,97093.50
2022-09-23T13:54:00.232Z,97091.50
2022-09-23T13:56:07.165Z,97094.97
2022-09-23T13:58:18.462Z,97094.47
2022-09-23T14:00:23.208Z,97094.72
2022-09-23T14:02:28.314Z,97094.13
2022-09-23T14:04:30.956Z,97095.44
2022-09-23T14:06:42.197Z,97089.78
2022-09-23T14:08:47.221Z,97089.31
2022-09-23T14:10:53.654Z,97091.47
2022-09-23T14:12:59.337Z,97084.38
2022-09-23T14:15:01.913Z,97082.09
2022-09-23T14:17:05.722Z,97080.03
2022-09-23T14:19:11.465Z,97079.47
2022-09-23T14:21:29.952Z,97078.97
2022-09-23T14:23:33.021Z,97070.81
2022-09-23T14:25:36.695Z,97069.00
2022-09-23T14:27:39.767Z,97073.09
2022-09-23T14:29:46.398Z,97069.59
2022-09-23T14:31:56.748Z,97072.97
2022-09-23T14:33:59.733Z,97061.78
2022-09-23T14:36:08.750Z,97055.88
2022-09-23T14:38:29.527Z,97057.09
2022-09-23T14:40:33.941Z,97057.09
2022-09-23T14:42:41.122Z,97064.06
2022-09-23T14:44:50.484Z,97059.50
2022-09-23T14:46:57.642Z,97060.56
2022-09-23T14:49:07.894Z,97052.41
2022-09-23T14:51:16.193Z,97057.53
2022-09-23T14:53:41.278Z,97055.59
2022-09-23T14:55:43.852Z,97049.31
2022-09-23T14:57:46.763Z,97049.06
2022-09-23T14:59:54.460Z,97052.75
2022-09-23T15:01:57.224Z,97049.72
2022-09-23T15:04:00.788Z,97054.53
2022-09-23T15:06:09.029Z,97048.88
2022-09-23T15:08:21.893Z,97044.16
2022-09-23T15:10:28.840Z,97047.03
2022-09-23T15:12:32.333Z,97049.44
2022-09-23T15:14:39.754Z,97042.63
2022-09-23T15:16:44.934Z,97052.13
2022-09-23T15:18:55.130Z,97046.84
2022-09-23T15:21:02.435Z,97039.88
2022-09-23T15:23:04.987Z,97040.09
2022-09-23T15:25:17.719Z,97043.09
2022-09-23T15:27:30.891Z,97045.34
2022-09-23T15:29:33.645Z,97037.06
2022-09-23T15:31:37.316Z,97043.72
2022-09-23T15:33:41.548Z,97054.09
2022-09-23T15:35:48.613Z,97050.22
2022-09-23T15:37:51.667Z,97048.16
2022-09-23T15:39:54.313Z,97055.63
2022-09-23T15:41:57.287Z,97059.34
2022-09-23T15:44:06.037Z,97051.88
2022-09-23T15:46:14.280Z,97058.44
2022-09-23T15:48:19.321Z,97057.94
2022-09-23T15:50:23.202Z,97057.31
2022-09-23T15:52:26.509Z,97055.94
2022-09-23T15:54:29.605Z,97052.78
2022-09-23T15:56:32.239Z,97058.47
2022-09-23T15:58:34.795Z,97051.03
2022-09-23T16:00:37.886Z,97054.06
2022-09-23T16:02:41.080Z,97054.41
2022-09-23T16:04:47.159Z,97054.00
2022-09-23T16:06:51.171Z,97056.94
2022-09-23T16:08:54.171Z,97053.78
2022-09-23T16:10:57.574Z,97050.63
2022-09-23T16:13:02.256Z,97054.50
2022-09-23T16:15:05.355Z,97062.84
2022-09-23T16:17:10.450Z,97054.41
2022-09-23T16:19:13.198Z,97053.00
2022-09-23T16:21:18.919Z,97049.84
2022-09-23T16:23:35.401Z,97052.69
2022-09-23T16:25:38.407Z,97053.94
2022-09-23T16:27:41.193Z,97050.78
2022-09-23T16:29:43.709Z,97048.44
2022-09-23T16:31:46.314Z,97054.88
2022-09-23T16:33:51.249Z,97053.50
2022-09-23T16:35:53.926Z,97057.38
2022-09-23T16:37:57.106Z,97047.38
2022-09-23T16:40:02.075Z,97047.53
2022-09-23T16:42:04.891Z,97050.50
2022-09-23T16:44:10.552Z,97047.22
2022-09-23T16:46:14.885Z,97050.97
2022-09-23T16:48:19.580Z,97052.97
2022-09-23T16:50:23.714Z,97060.13
2022-09-23T16:52:26.371Z,97061.19
2022-09-23T16:54:28.987Z,97075.47
2022-09-23T16:56:32.899Z,97080.28
2022-09-23T16:58:35.444Z,97079.72
2022-09-23T17:00:55.910Z,97080.97
2022-09-23T17:03:16.261Z,97076.09
2022-09-23T17:05:19.331Z,97078.09
2022-09-23T17:07:22.082Z,97076.59
2022-09-23T17:09:26.434Z,97075.91
2022-09-23T17:11:33.452Z,97075.25
2022-09-23T17:13:40.432Z,97074.59
2022-09-23T17:15:44.013Z,97076.47
2022-09-23T17:17:46.570Z,97081.81
2022-09-23T17:19:49.126Z,97074.03
2022-09-23T17:21:51.653Z,97066.44
2022-09-23T17:23:57.716Z,97063.16
2022-09-23T17:26:00.617Z,97066.00
2022-09-23T17:28:03.250Z,97070.19
2022-09-23T17:30:08.599Z,97066.91
2022-09-23T17:32:11.131Z,97066.91
2022-09-23T17:34:13.677Z,97075.91
2022-09-23T17:36:16.795Z,97078.66
2022-09-23T17:38:19.449Z,97077.16
2022-09-23T17:40:22.057Z,97075.84
2022-09-23T17:42:24.688Z,97075.19
2022-09-23T17:44:27.427Z,97077.16
2022-09-23T17:46:32.087Z,97072.81
2022-09-23T17:48:37.069Z,97076.59
2022-09-23T17:50:39.625Z,97070.69
2022-09-23T17:52:42.163Z,97061.38
2022-09-23T17:54:46.960Z,97064.41
2022-09-23T17:56:49.486Z,97067.28
2022-09-23T17:58:53.337Z,97071.78
2022-09-23T18:00:56.850Z,97069.34
2022-09-23T18:03:00.828Z,97068.59
2022-09-23T18:05:03.374Z,97061.00
2022-09-23T18:07:05.915Z,97059.38
2022-09-23T18:09:09.273Z,97061.28
2022-09-23T18:11:17.011Z,97060.88
2022-09-23T18:13:19.560Z,97051.66
2022-09-23T18:15:22.094Z,97056.16
2022-09-23T18:17:24.606Z,97064.31
2022-09-23T18:19:28.500Z,97054.84
2022-09-23T18:21:32.988Z,97060.94
2022-09-23T18:23:37.129Z,97064.66
2022-09-23T18:25:40.223Z,97060.69
2022-09-23T18:27:42.827Z,97070.13
2022-09-23T18:29:45.377Z,97070.72
2022-09-23T18:31:50.959Z,97065.00
2022-09-23T18:33:55.083Z,97057.66
2022-09-23T18:36:01.487Z,97053.44
2022-09-23T18:38:04.006Z,97056.25
2022-09-23T18:40:12.540Z,97051.06
2022-09-23T18:42:16.996Z,97052.84
2022-09-23T18:44:19.974Z,97053.00
2022-09-23T18:46:24.109Z,97045.31
2022-09-23T18:48:44.691Z,97044.66
2022-09-23T18:50:48.805Z,97052.63
2022-09-23T18:52:53.115Z,97057.78
2022-09-23T18:54:55.640Z,97057.00
2022-09-23T18:56:59.165Z,97057.09
2022-09-23T18:59:03.995Z,97060.66
2022-09-23T19:01:08.936Z,97047.66
2022-09-23T19:03:11.601Z,97050.34
2022-09-23T19:05:14.696Z,97049.41
2022-09-23T19:07:17.200Z,97048.56
2022-09-23T19:09:21.241Z,97043.41
2022-09-23T19:11:24.949Z,97049.59
2022-09-23T19:13:27.530Z,97052.31
2022-09-23T19:15:30.151Z,97053.22
2022-09-23T19:17:34.009Z,97049.94
2022-09-23T19:19:36.741Z,97062.28
2022-09-23T19:21:39.287Z,97060.59
2022-09-23T19:23:47.477Z,97056.28
2022-09-23T19:25:51.477Z,97046.72
2022-09-23T19:27:53.998Z,97055.53
2022-09-23T19:29:57.724Z,97060.78
2022-09-23T19:32:00.325Z,97047.66
2022-09-23T19:34:06.010Z,97055.63
2022-09-23T19:36:09.387Z,97048.75
2022-09-23T19:38:11.907Z,97050.63
2022-09-23T19:40:14.941Z,97049.03
2022-09-23T19:42:18.820Z,97050.78
2022-09-23T19:44:21.388Z,97050.03
2022-09-23T19:46:24.141Z,97045.81
2022-09-23T19:48:26.771Z,97036.25
2022-09-23T19:50:34.493Z,97033.72
2022-09-23T19:52:37.818Z,97040.00
2022-09-23T19:54:40.365Z,97041.84
2022-09-23T19:56:42.917Z,97048.00
2022-09-23T19:58:48.466Z,97036.69
2022-09-23T20:00:50.995Z,97036.78
2022-09-23T20:02:53.589Z,97038.63
2022-09-23T20:04:56.145Z,97033.41
2022-09-23T20:06:58.731Z,97040.41
2022-09-23T20:09:01.751Z,97028.25
2022-09-23T20:11:10.231Z,97025.69
2022-09-23T20:13:14.560Z,97024.94
2022-09-23T20:15:18.776Z,97019.03
2022-09-23T20:17:21.328Z,97017.41
2022-09-23T20:19:24.032Z,97019.25
2022-09-23T20:21:28.125Z,97010.72
2022-09-23T20:23:30.776Z,97018.56
2022-09-23T20:25:54.090Z,97016.03
2022-09-23T20:27:55.664Z,97017.00
2022-09-23T20:29:58.945Z,97017.16
2022-09-23T20:32:03.748Z,97016.41
2022-09-23T20:34:07.035Z,97014.59
2022-09-23T20:36:10.293Z,97003.38
2022-09-23T20:38:12.936Z,97006.06
2022-09-23T20:40:15.761Z,97006.16
2022-09-23T20:42:19.966Z,97000.91
2022-09-23T20:44:25.091Z,97000.19
2022-09-23T20:46:28.447Z,96992.53
2022-09-23T20:48:33.804Z,96993.56
2022-09-23T20:50:37.165Z,96998.03
2022-09-23T20:52:39.671Z,96995.44
2022-09-23T20:54:42.882Z,96998.13
2022-09-23T20:56:45.443Z,96998.03
2022-09-23T20:58:48.648Z,96999.97
2022-09-23T21:00:51.287Z,96998.34
2022-09-23T21:02:53.940Z,97004.69
2022-09-23T21:04:57.853Z,96999.50
2022-09-23T21:07:01.001Z,97003.16
2022-09-23T21:09:04.281Z,96994.69
2022-09-23T21:11:10.409Z,96995.69
2022-09-23T21:13:13.153Z,96995.84
2022-09-23T21:15:15.916Z,96999.41
2022-09-23T21:17:18.521Z,96999.50
2022-09-23T21:19:21.302Z,96993.59
2022-09-23T21:21:25.468Z,96999.63
2022-09-23T21:23:29.801Z,96998.97
2022-09-23T21:25:32.634Z,96999.03
2022-09-23T21:27:37.106Z,97001.75
2022-09-23T21:29:40.103Z,97003.50
2022-09-23T21:31:42.709Z,96999.13
2022-09-23T21:33:45.297Z,97003.50
2022-09-23T21:35:52.451Z,96996.59
2022-09-23T21:37:58.381Z,97001.06
2022-09-23T21:40:18.853Z,97000.88
2022-09-23T21:42:21.443Z,97002.69
2022-09-23T21:44:23.981Z,97001.91
2022-09-23T21:46:28.216Z,97007.78
2022-09-23T21:48:32.666Z,97004.41
2022-09-23T21:50:37.196Z,97007.25
2022-09-23T21:52:40.073Z,97008.25
2022-09-23T21:54:43.963Z,97007.34
2022-09-23T21:56:46.855Z,97009.88
2022-09-23T21:58:50.185Z,97008.25
2022-09-23T22:00:52.810Z,97006.66
2022-09-23T22:02:55.492Z,97011.03
2022-09-23T22:04:58.069Z,97008.50
2022-09-23T22:07:01.266Z,97010.25
2022-09-23T22:09:08.401Z,97001.56
2022-09-23T22:11:35.264Z,97000.75
2022-09-23T22:13:37.807Z,97002.66
2022-09-23T22:15:42.569Z,97005.28
2022-09-23T22:17:46.519Z,97001.97
2022-09-23T22:19:49.250Z,97012.44
2022-09-23T22:21:54.895Z,97003.72
2022-09-23T22:24:01.041Z,97015.19
2022-09-23T22:26:04.812Z,97002.06
2022-09-23T22:28:29.375Z,97014.44
2022-09-23T22:30:49.353Z,97004.81
2022-09-23T22:32:55.193Z,96999.66
2022-09-23T22:34:58.159Z,96995.28
2022-09-23T22:37:01.190Z,96996.19
2022-09-23T22:39:05.014Z,96998.97
2022-09-23T22:41:07.599Z,97007.06
2022-09-23T22:43:11.943Z,97000.09
2022-09-23T22:45:14.687Z,97010.44
2022-09-23T22:47:18.592Z,97016.66
2022-09-23T22:49:21.178Z,97020.06
2022-09-23T22:51:23.890Z,97020.06
2022-09-23T22:53:26.605Z,97014.72
2022-09-23T22:55:29.169Z,97014.72
2022-09-23T22:57:32.180Z,97014.97
2022-09-23T22:59:37.229Z,97011.59
2022-09-23T23:01:40.492Z,97010.72
2022-09-23T23:03:43.137Z,97012.56
2022-09-23T23:05:47.090Z,97008.38
2022-09-23T23:07:49.815Z,97000.59
2022-09-23T23:09:53.229Z,97001.50
2022-09-23T23:11:55.780Z,97004.03
2022-09-23T23:14:01.283Z,97001.50
2022-09-23T23:16:07.100Z,96992.13
2022-09-23T23:18:09.797Z,96997.50
2022-09-23T23:20:12.400Z,96992.34
2022-09-23T23:22:14.914Z,96992.34
2022-09-23T23:24:20.569Z,96988.97
2022-09-23T23:26:25.252Z,96982.91
2022-09-23T23:28:27.806Z,96986.34
2022-09-23T23:30:34.792Z,96986.34
2022-09-23T23:32:38.744Z,96986.50
2022-09-23T23:34:41.252Z,96980.50
2022-09-23T23:36:44.535Z,96985.81
2022-09-23T23:38:51.536Z,96982.41
2022-09-23T23:40:55.486Z,96983.34
2022-09-23T23:43:00.061Z,96979.88
2022-09-23T23:45:02.629Z,96979.97
2022-09-23T23:47:05.427Z,96986.03
2022-09-23T23:49:09.356Z,96977.34
2022-09-23T23:51:12.604Z,96971.97
2022-09-23T23:53:15.181Z,96975.44
2022-09-23T23:55:17.875Z,96971.97
2022-09-23T23:57:20.408Z,96967.66
2022-09-23T23:59:23.001Z,96969.28
